Nearby METAR Reports

 

KHOB - Hobbs, New Mexico, USA
Distance from station: S 40mi, 65km
Updated: Sun, 11-Apr-2021 9:50am MDT
Clear
Clear
 Wind from NW
Wind: NW 18 mph , 30 km/h, Gust: 25 mph , 41 km/h
Temperature: 77°F , 25°C
Dew Point: -2°F , -19°C
Humidity: 4%
Barometer: 29.79 inHg , 1008.8 hPa
Clouds: Clear
Visibility: 10 miles , 16 km
2021/04/11 15:50 KHOB 111550Z 31016G22KT 10SM SKC 25/M19 A2979
KGNC - Seminole, Texas, USA
Distance from station: SE 55mi, 89km
Updated: Sun, 11-Apr-2021 10:15am MDT
Clear
Clear
 Wind from NW
Wind: NW 15 mph , 24 km/h, Gust: 25 mph , 41 km/h
Temperature: 79°F , 26°C
Dew Point: 12°F , -11°C
Humidity: 8%
Barometer: 29.81 inHg , 1009.5 hPa
Clouds: Clear
Visibility: 10 miles , 16 km
2021/04/11 16:15 KGNC 111615Z AUTO 31013G22KT 10SM CLR 26/M11 A2981 RMK AO2 T02601112
 
KROW - Roswell, New Mexico, USA
Distance from station: W 67mi, 108km
Updated: Sun, 11-Apr-2021 9:51am MDT
Clear
Clear
 Wind from ENE
Wind: ENE 3 mph , 6 km/h
Temperature: 66°F , 19°C
Dew Point: 27°F , -3°C
Humidity: 22%
Barometer: 29.80 inHg , 1009.1 hPa
Clouds: Clear
Visibility: 10 miles , 16 km
2021/04/11 15:51 KROW 111551Z 07003KT 10SM CLR 19/M03 A2980 RMK AO2 SLP044 T01891033
KATS - Artesia, New Mexico, USA
Distance from station: WSW 71mi, 114km
Updated: Sun, 11-Apr-2021 10:15am MDT
Clear
Clear
 Wind from varies
Wind: varies 3 mph , 6 km/h
Temperature: 70°F , 21°C
Dew Point: 16°F , -9°C
Humidity: 12%
Barometer: 29.83 inHg , 1010.2 hPa
Clouds: Clear
Visibility: 10 miles , 16 km
2021/04/11 16:15 KATS 111615Z AUTO VRB03KT 10SM CLR 21/M09 A2983 RMK AO2
 
KCVS - Cannon AFB,Clovis, New Mexico, USA
Distance from station: 0 78mi, 125km
Updated: Sun, 11-Apr-2021 9:58am MDT
Clear
Clear
 Wind from W
Wind: W 13 mph , 20 km/h
Temperature: 72°F , 22°C
Dew Point: 3°F , -16°C
Humidity: 7%
Barometer: 29.79 inHg , 1008.8 hPa
Clouds: Clear
Visibility: 10 miles , 16 km
2021/04/11 15:58 KCVS 111558Z AUTO 28011KT 10SM CLR 22/M16 A2979 RMK AO2 SLP044 T02161157 $
KE11 - Andrews, Texas, USA
Distance from station: SE 78mi, 126km
Updated: Sun, 11-Apr-2021 10:15am MDT
Clear
Clear
 Wind from NW
Wind: NW 13 mph , 20 km/h, Gust: 18 mph , 30 km/h
Temperature: 81°F , 27°C
Dew Point: 9°F , -13°C
Humidity: 6%
Barometer: 29.78 inHg , 1008.5 hPa
Clouds: Clear
Visibility: 10 miles , 16 km
2021/04/11 16:15 KE11 111615Z AUTO 32011G16KT 10SM CLR 27/M13 A2978 RMK AO2 T02651126
 
KCNM - Carlsbad, New Mexico, USA
Distance from station: SW 82mi, 132km
Updated: Sun, 11-Apr-2021 9:53am MDT
Clear
Clear
 Wind from NE
Wind: NE 6 mph , 9 km/h
Temperature: 72°F , 22°C
Dew Point: 10°F , -12°C
Humidity: 9%
Barometer: 29.80 inHg , 1009.1 hPa
Clouds: Clear
Visibility: 10 miles , 16 km
2021/04/11 15:53 KCNM 111553Z AUTO 04005KT 10SM CLR 22/M12 A2980 RMK AO2 SLP051 T02171122
KCVN - Clovis Muni, New Mexico, USA
Distance from station: N 83mi, 133km
Updated: Sun, 11-Apr-2021 9:56am MDT
Clear
Clear
 Wind from NW
Wind: NW 17 mph , 28 km/h
Temperature: 73°F , 23°C
Dew Point: 9°F , -13°C
Humidity: 8%
Barometer: 29.79 inHg , 1008.8 hPa
Clouds: Clear
Visibility: 10 miles , 16 km
2021/04/11 15:56 KCVN 111556Z AUTO 32015KT 10SM CLR 23/M13 A2979 RMK AO2 SLP060 T02281133
 
KLBB - Lubbock, Texas, USA
Distance from station: ENE 92mi, 149km
Updated: Sun, 11-Apr-2021 9:53am MDT
Clear
Clear
 Wind from WNW
Wind: WNW 15 mph , 24 km/h
Temperature: 72°F , 22°C
Dew Point: 23°F , -5°C
Humidity: 16%
Barometer: 29.72 inHg , 1006.4 hPa
Clouds: Clear
Visibility: 10 miles , 16 km
2021/04/11 15:53 KLBB 111553Z 29013KT 10SM CLR 22/M05 A2972 RMK AO2 SLP026 T02171050
KINK - Wink, Texas, USA
Distance from station: S 101mi, 163km
Updated: Sun, 11-Apr-2021 9:53am MDT
Clear
Clear
 Wind from NW
Wind: NW 15 mph , 24 km/h, Gust: 21 mph , 33 km/h
Temperature: 82°F , 28°C
Dew Point: 12°F , -11°C
Humidity: 7%
Barometer: 29.76 inHg , 1007.8 hPa
Clouds: Clear
Visibility: 10 miles , 16 km
2021/04/11 15:53 KINK 111553Z AUTO 32013G18KT 10SM CLR 28/M11 A2976 RMK AO2 SLP039 T02781106
 
KMAF - Midland, Texas, USA
Distance from station: SE 111mi, 179km
Updated: Sun, 11-Apr-2021 9:53am MDT
Clear
Clear
 Wind from WSW
Wind: WSW 15 mph , 24 km/h
Temperature: 75°F , 24°C
Dew Point: 23°F , -5°C
Humidity: 14%
Barometer: 29.76 inHg , 1007.8 hPa
Clouds: Clear
Visibility: 10 miles , 16 km
2021/04/11 15:53 KMAF 111553Z 25013KT 10SM CLR 24/M05 A2976 RMK AO2 SLP042 T02441050
KSRR - Sierra B/Ruidoso, New Mexico, USA
Distance from station: W 127mi, 204km
Updated: Sun, 11-Apr-2021 10:15am MDT
Clear
Clear
 Wind from NW
Wind: NW 14 mph , 22 km/h, Gust: 21 mph , 33 km/h
Temperature: 63°F , 17°C
Dew Point: 9°F , -13°C
Humidity: 12%
Barometer: 30.00 inHg , 1015.9 hPa
Clouds: Clear
Visibility: 10 miles , 16 km
2021/04/11 16:15 KSRR 111615Z AUTO 32012G18KT 10SM CLR 17/M13 A3000 RMK AO2
 
KGDP - Guadalupe Pass, Texas, USA
Distance from station: SW 130mi, 209km
Updated: Sat, 03-Apr-2021 7:51am MDT
NOT Current
Rain, Overcast
Rain, Overcast
 Wind from ENE
Wind: ENE 8 mph , 13 km/h
Temperature: 59°F , 15°C
Dew Point: 43°F , 6°C
Humidity: 55%
Barometer: 30.21 inHg , 1023 hPa
Summary: Rain
Clouds: Overcast
Visibility: 5 miles , 8 km
Cloud details: Few Clouds 4800 ft
Overcast 8000 ft
2021/04/03 13:51 KGDP 031351Z AUTO 06007KT 5SM RA FEW048 OVC080 15/06 A3021 RMK AO2 RAB1254 SLP169 P0007 T01500061